sensor_id;sensor_type;location;lat;lon;timestamp;pressure;altitude;pressure_sealevel;temperature;humidity
51123;BME280;37162;41.724;13.346;2023-07-28T00:01:52;96709.06;;;24.92;64.22
51123;BME280;37162;41.724;13.346;2023-07-28T00:04:18;96712.03;;;24.95;64.43
51123;BME280;37162;41.724;13.346;2023-07-28T00:06:43;96705.03;;;24.89;64.67
51123;BME280;37162;41.724;13.346;2023-07-28T00:09:09;96697.13;;;24.88;64.75
51123;BME280;37162;41.724;13.346;2023-07-28T00:11:34;96701.44;;;24.94;64.55
51123;BME280;37162;41.724;13.346;2023-07-28T00:14:00;96700.63;;;24.93;64.34
51123;BME280;37162;41.724;13.346;2023-07-28T00:16:25;96696.03;;;24.94;64.46
51123;BME280;37162;41.724;13.346;2023-07-28T00:18:50;96692.47;;;24.93;64.58
51123;BME280;37162;41.724;13.346;2023-07-28T00:21:16;96691.38;;;24.94;64.93
51123;BME280;37162;41.724;13.346;2023-07-28T00:23:41;96689.75;;;24.93;64.82
51123;BME280;37162;41.724;13.346;2023-07-28T00:26:07;96688.72;;;24.89;64.82
51123;BME280;37162;41.724;13.346;2023-07-28T00:28:32;96685.41;;;24.92;64.49
51123;BME280;37162;41.724;13.346;2023-07-28T00:30:57;96677.84;;;24.89;64.24
51123;BME280;37162;41.724;13.346;2023-07-28T00:33:23;96676.75;;;24.90;64.32
51123;BME280;37162;41.724;13.346;2023-07-28T00:35:49;96672.97;;;24.86;64.17
51123;BME280;37162;41.724;13.346;2023-07-28T00:38:14;96681.38;;;24.90;64.04
51123;BME280;37162;41.724;13.346;2023-07-28T00:40:40;96682.19;;;24.90;64.02
51123;BME280;37162;41.724;13.346;2023-07-28T00:43:05;96679.47;;;24.90;64.32
51123;BME280;37162;41.724;13.346;2023-07-28T00:45:33;96684.91;;;24.90;64.17
51123;BME280;37162;41.724;13.346;2023-07-28T00:47:59;96684.34;;;24.88;64.44
51123;BME280;37162;41.724;13.346;2023-07-28T00:50:25;96686.81;;;24.90;64.35
51123;BME280;37162;41.724;13.346;2023-07-28T00:52:51;96685.72;;;24.91;64.66
51123;BME280;37162;41.724;13.346;2023-07-28T00:55:17;96677.91;;;24.84;64.98
51123;BME280;37162;41.724;13.346;2023-07-28T00:57:43;96692.25;;;24.90;65.16
51123;BME280;37162;41.724;13.346;2023-07-28T01:00:09;96688.72;;;24.89;65.01
51123;BME280;37162;41.724;13.346;2023-07-28T01:02:36;96689.00;;;24.88;64.71
51123;BME280;37162;41.724;13.346;2023-07-28T01:05:01;96677.34;;;24.82;64.41
51123;BME280;37162;41.724;13.346;2023-07-28T01:07:47;96685.47;;;24.87;64.66
51123;BME280;37162;41.724;13.346;2023-07-28T01:10:30;96682.22;;;24.85;64.38
51123;BME280;37162;41.724;13.346;2023-07-28T01:12:56;96673.03;;;24.81;64.23
51123;BME280;37162;41.724;13.346;2023-07-28T01:15:21;96673.84;;;24.82;64.05
51123;BME280;37162;41.724;13.346;2023-07-28T01:17:47;96666.19;;;24.84;63.91
51123;BME280;37162;41.724;13.346;2023-07-28T01:20:12;96665.38;;;24.83;64.09
51123;BME280;37162;41.724;13.346;2023-07-28T01:22:47;96660.75;;;24.84;64.29
51123;BME280;37162;41.724;13.346;2023-07-28T01:28:07;96657.28;;;24.78;64.42
51123;BME280;37162;41.724;13.346;2023-07-28T01:30:33;96655.38;;;24.79;64.43
51123;BME280;37162;41.724;13.346;2023-07-28T01:32:58;96672.47;;;24.84;65.01
51123;BME280;37162;41.724;13.346;2023-07-28T01:35:26;96672.47;;;24.84;64.69
51123;BME280;37162;41.724;13.346;2023-07-28T01:37:51;96674.63;;;24.82;64.40
51123;BME280;37162;41.724;13.346;2023-07-28T01:40:18;96666.47;;;24.82;63.97
51123;BME280;37162;41.724;13.346;2023-07-28T01:42:43;96662.72;;;24.78;64.43
51123;BME280;37162;41.724;13.346;2023-07-28T01:45:09;96662.47;;;24.74;64.32
51123;BME280;37162;41.724;13.346;2023-07-28T01:47:36;96672.22;;;24.81;64.36
51123;BME280;37162;41.724;13.346;2023-07-28T01:50:01;96667.41;;;24.72;64.11
51123;BME280;37162;41.724;13.346;2023-07-28T01:52:27;96685.81;;;24.81;64.09
51123;BME280;37162;41.724;13.346;2023-07-28T01:54:52;96671.69;;;24.79;64.09
51123;BME280;37162;41.724;13.346;2023-07-28T01:57:18;96683.91;;;24.81;64.35
51123;BME280;37162;41.724;13.346;2023-07-28T01:59:43;96679.25;;;24.82;64.53
51123;BME280;37162;41.724;13.346;2023-07-28T02:02:09;96675.75;;;24.81;64.72
51123;BME280;37162;41.724;13.346;2023-07-28T02:04:34;96676.56;;;24.82;64.52
51123;BME280;37162;41.724;13.346;2023-07-28T02:07:00;96672.53;;;24.74;64.66
51123;BME280;37162;41.724;13.346;2023-07-28T02:09:25;96679.81;;;24.79;64.38
51123;BME280;37162;41.724;13.346;2023-07-28T02:11:52;96661.19;;;24.67;64.10
51123;BME280;37162;41.724;13.346;2023-07-28T02:14:17;96674.69;;;24.77;63.94
51123;BME280;37162;41.724;13.346;2023-07-28T02:16:43;96675.78;;;24.76;63.67
51123;BME280;37162;41.724;13.346;2023-07-28T02:19:08;96676.91;;;24.75;63.55
51123;BME280;37162;41.724;13.346;2023-07-28T02:21:33;96675.25;;;24.74;63.37
51123;BME280;37162;41.724;13.346;2023-07-28T02:23:59;96675.25;;;24.74;63.30
51123;BME280;37162;41.724;13.346;2023-07-28T02:26:25;96670.97;;;24.68;63.58
51123;BME280;37162;41.724;13.346;2023-07-28T02:28:50;96677.97;;;24.74;63.49
51123;BME280;37162;41.724;13.346;2023-07-28T02:31:16;96660.09;;;24.68;63.58
51123;BME280;37162;41.724;13.346;2023-07-28T02:33:41;96666.03;;;24.75;64.33
51123;BME280;37162;41.724;13.346;2023-07-28T02:36:06;96661.66;;;24.74;64.36
51123;BME280;37162;41.724;13.346;2023-07-28T02:38:32;96662.47;;;24.74;64.34
51123;BME280;37162;41.724;13.346;2023-07-28T02:40:57;96650.00;;;24.73;64.36
51123;BME280;37162;41.724;13.346;2023-07-28T02:43:23;96653.81;;;24.72;64.30
51123;BME280;37162;41.724;13.346;2023-07-28T02:45:53;96660.34;;;24.71;64.12
51123;BME280;37162;41.724;13.346;2023-07-28T02:48:18;96661.44;;;24.70;64.12
51123;BME280;37162;41.724;13.346;2023-07-28T02:50:46;96653.59;;;24.64;63.85
51123;BME280;37162;41.724;13.346;2023-07-28T02:53:13;96652.78;;;24.63;63.42
51123;BME280;37162;41.724;13.346;2023-07-28T02:55:42;96660.09;;;24.68;63.65
51123;BME280;37162;41.724;13.346;2023-07-28T02:58:08;96669.06;;;24.68;63.51
51123;BME280;37162;41.724;13.346;2023-07-28T03:00:33;96663.31;;;24.70;63.27
51123;BME280;37162;41.724;13.346;2023-07-28T03:02:59;96667.16;;;24.69;63.46
51123;BME280;37162;41.724;13.346;2023-07-28T03:05:24;96672.56;;;24.69;63.36
51123;BME280;37162;41.724;13.346;2023-07-28T03:07:50;96676.91;;;24.70;63.62
51123;BME280;37162;41.724;13.346;2023-07-28T03:10:15;96673.13;;;24.71;63.82
51123;BME280;37162;41.724;13.346;2023-07-28T03:12:42;96677.75;;;24.70;64.26
51123;BME280;37162;41.724;13.346;2023-07-28T03:15:08;96676.91;;;24.70;64.27
51123;BME280;37162;41.724;13.346;2023-07-28T03:17:33;96672.56;;;24.69;64.27
51123;BME280;37162;41.724;13.346;2023-07-28T03:19:58;96684.53;;;24.68;63.80
51123;BME280;37162;41.724;13.346;2023-07-28T03:22:24;96686.47;;;24.67;63.66
51123;BME280;37162;41.724;13.346;2023-07-28T03:24:49;96687.31;;;24.63;63.56
51123;BME280;37162;41.724;13.346;2023-07-28T03:27:15;96689.47;;;24.66;63.35
51123;BME280;37162;41.724;13.346;2023-07-28T03:29:40;96686.75;;;24.66;63.57
51123;BME280;37162;41.724;13.346;2023-07-28T03:32:06;96679.66;;;24.65;63.31
51123;BME280;37162;41.724;13.346;2023-07-28T03:34:31;96689.72;;;24.64;63.20
51123;BME280;37162;41.724;13.346;2023-07-28T03:36:57;96698.47;;;24.61;63.23
51123;BME280;37162;41.724;13.346;2023-07-28T03:39:22;96712.28;;;24.65;63.18
51123;BME280;37162;41.724;13.346;2023-07-28T03:41:47;96694.34;;;24.64;63.42
51123;BME280;37162;41.724;13.346;2023-07-28T03:44:13;96694.06;;;24.65;63.49
51123;BME280;37162;41.724;13.346;2023-07-28T03:46:40;96688.63;;;24.65;63.86
51123;BME280;37162;41.724;13.346;2023-07-28T03:49:06;96686.78;;;24.61;63.83
51123;BME280;37162;41.724;13.346;2023-07-28T03:51:31;96697.94;;;24.59;63.74
51123;BME280;37162;41.724;13.346;2023-07-28T03:53:57;96707.13;;;24.63;63.42
51123;BME280;37162;41.724;13.346;2023-07-28T03:56:22;96705.53;;;24.62;63.26
51123;BME280;37162;41.724;13.346;2023-07-28T03:58:47;96700.69;;;24.54;63.17
51123;BME280;37162;41.724;13.346;2023-07-28T04:01:13;96716.69;;;24.61;62.81
51123;BME280;37162;41.724;13.346;2023-07-28T04:03:39;96722.91;;;24.61;62.88
51123;BME280;37162;41.724;13.346;2023-07-28T04:06:10;96722.91;;;24.61;62.79
51123;BME280;37162;41.724;13.346;2023-07-28T04:08:36;96708.53;;;24.56;62.78
51123;BME280;37162;41.724;13.346;2023-07-28T04:11:01;96710.19;;;24.57;62.70
51123;BME280;37162;41.724;13.346;2023-07-28T04:13:27;96711.81;;;24.58;62.57
51123;BME280;37162;41.724;13.346;2023-07-28T04:15:52;96717.50;;;24.61;62.91
51123;BME280;37162;41.724;13.346;2023-07-28T04:18:17;96722.91;;;24.61;63.14
51123;BME280;37162;41.724;13.346;2023-07-28T04:20:43;96722.91;;;24.61;63.29
51123;BME280;37162;41.724;13.346;2023-07-28T04:23:08;96731.06;;;24.61;63.46
51123;BME280;37162;41.724;13.346;2023-07-28T04:25:34;96733.25;;;24.59;62.93
51123;BME280;37162;41.724;13.346;2023-07-28T04:27:59;96726.75;;;24.55;63.19
51123;BME280;37162;41.724;13.346;2023-07-28T04:30:25;96740.59;;;24.59;62.98
51123;BME280;37162;41.724;13.346;2023-07-28T04:32:50;96727.03;;;24.54;62.89
51123;BME280;37162;41.724;13.346;2023-07-28T04:35:16;96734.34;;;24.58;62.45
51123;BME280;37162;41.724;13.346;2023-07-28T04:37:41;96732.44;;;24.59;62.57
51123;BME280;37162;41.724;13.346;2023-07-28T04:40:07;96734.34;;;24.58;62.56
51123;BME280;37162;41.724;13.346;2023-07-28T04:42:34;96730.81;;;24.58;62.46
51123;BME280;37162;41.724;13.346;2023-07-28T04:44:59;96722.66;;;24.58;62.37
51123;BME280;37162;41.724;13.346;2023-07-28T04:47:24;96736.25;;;24.58;62.37
51123;BME280;37162;41.724;13.346;2023-07-28T04:49:50;96730.53;;;24.59;62.55
51123;BME280;37162;41.724;13.346;2023-07-28T04:52:15;96721.28;;;24.60;62.97
51123;BME280;37162;41.724;13.346;2023-07-28T04:54:41;96713.13;;;24.60;62.91
51123;BME280;37162;41.724;13.346;2023-07-28T04:57:06;96713.97;;;24.61;63.26
51123;BME280;37162;41.724;13.346;2023-07-28T04:59:32;96716.69;;;24.61;62.97
51123;BME280;37162;41.724;13.346;2023-07-28T05:01:57;96725.09;;;24.59;62.91
51123;BME280;37162;41.724;13.346;2023-07-28T05:04:23;96725.09;;;24.59;62.98
51123;BME280;37162;41.724;13.346;2023-07-28T05:06:48;96732.44;;;24.59;62.88
51123;BME280;37162;41.724;13.346;2023-07-28T05:09:13;96714.56;;;24.53;62.78
51123;BME280;37162;41.724;13.346;2023-07-28T05:11:39;96719.66;;;24.59;62.75
51123;BME280;37162;41.724;13.346;2023-07-28T05:14:04;96719.66;;;24.59;62.58
51123;BME280;37162;41.724;13.346;2023-07-28T05:16:34;96733.25;;;24.59;62.47
51123;BME280;37162;41.724;13.346;2023-07-28T05:18:59;96727.00;;;24.59;62.57
51123;BME280;37162;41.724;13.346;2023-07-28T05:21:25;96737.56;;;24.60;62.17
51123;BME280;37162;41.724;13.346;2023-07-28T05:23:50;96739.47;;;24.60;62.34
51123;BME280;37162;41.724;13.346;2023-07-28T05:26:16;96733.53;;;24.58;62.35
51123;BME280;37162;41.724;13.346;2023-07-28T05:28:41;96744.66;;;24.61;62.30
51123;BME280;37162;41.724;13.346;2023-07-28T05:31:07;96744.38;;;24.63;62.86
51123;BME280;37162;41.724;13.346;2023-07-28T05:33:33;96739.78;;;24.58;62.90
51123;BME280;37162;41.724;13.346;2023-07-28T05:36:02;96741.13;;;24.56;62.12
51123;BME280;37162;41.724;13.346;2023-07-28T05:38:28;96753.88;;;24.60;61.63
51123;BME280;37162;41.724;13.346;2023-07-28T05:41:01;96741.97;;;24.56;61.69
51123;BME280;37162;41.724;13.346;2023-07-28T05:43:31;96747.63;;;24.60;61.77
51123;BME280;37162;41.724;13.346;2023-07-28T05:46:00;96753.88;;;24.60;61.55
51123;BME280;37162;41.724;13.346;2023-07-28T05:48:26;96753.06;;;24.60;61.48
51123;BME280;37162;41.724;13.346;2023-07-28T05:50:51;96758.50;;;24.60;61.51
51123;BME280;37162;41.724;13.346;2023-07-28T05:53:21;96749.56;;;24.54;61.57
51123;BME280;37162;41.724;13.346;2023-07-28T05:55:47;96761.22;;;24.60;61.18
51123;BME280;37162;41.724;13.346;2023-07-28T05:58:13;96756.31;;;24.62;61.71
51123;BME280;37162;41.724;13.346;2023-07-28T06:00:39;96751.44;;;24.59;61.88
51123;BME280;37162;41.724;13.346;2023-07-28T06:03:09;96759.03;;;24.62;60.66
51123;BME280;37162;41.724;13.346;2023-07-28T06:05:35;96748.97;;;24.62;60.23
51123;BME280;37162;41.724;13.346;2023-07-28T06:14:42;96761.25;;;24.55;54.45
51123;BME280;37162;41.724;13.346;2023-07-28T06:17:07;96756.38;;;24.57;55.78
51123;BME280;37162;41.724;13.346;2023-07-28T06:19:34;96762.88;;;24.56;55.19
51123;BME280;37162;41.724;13.346;2023-07-28T06:22:00;96747.97;;;24.53;55.54
51123;BME280;37162;41.724;13.346;2023-07-28T06:24:26;96758.75;;;24.63;56.10
51123;BME280;37162;41.724;13.346;2023-07-28T06:26:52;96749.78;;;24.63;55.71
51123;BME280;37162;41.724;13.346;2023-07-28T06:29:17;96755.75;;;24.65;56.32
51123;BME280;37162;41.724;13.346;2023-07-28T06:31:43;96755.53;;;24.61;55.10
51123;BME280;37162;41.724;13.346;2023-07-28T06:34:08;96751.97;;;24.66;55.40
51123;BME280;37162;41.724;13.346;2023-07-28T06:36:33;96753.84;;;24.65;53.97
51123;BME280;37162;41.724;13.346;2023-07-28T06:38:59;96757.09;;;24.67;54.93
51123;BME280;37162;41.724;13.346;2023-07-28T06:41:24;96749.50;;;24.64;55.23
51123;BME280;37162;41.724;13.346;2023-07-28T06:43:50;96759.25;;;24.70;55.57
51123;BME280;37162;41.724;13.346;2023-07-28T06:46:15;96756.81;;;24.69;55.09
51123;BME280;37162;41.724;13.346;2023-07-28T06:48:41;96751.91;;;24.71;55.56
51123;BME280;37162;41.724;13.346;2023-07-28T06:51:06;96753.31;;;24.63;55.53
51123;BME280;37162;41.724;13.346;2023-07-28T06:53:32;96765.50;;;24.71;55.54
51123;BME280;37162;41.724;13.346;2023-07-28T06:55:59;96763.34;;;24.68;54.96
51123;BME280;37162;41.724;13.346;2023-07-28T06:58:25;96767.13;;;24.72;53.68
51123;BME280;37162;41.724;13.346;2023-07-28T07:00:51;96770.38;;;24.69;53.50
51123;BME280;37162;41.724;13.346;2023-07-28T07:03:17;96774.72;;;24.75;54.80
51123;BME280;37162;41.724;13.346;2023-07-28T07:05:42;96762.78;;;24.71;54.61
51123;BME280;37162;41.724;13.346;2023-07-28T07:08:09;96780.66;;;24.77;54.39
51123;BME280;37162;41.724;13.346;2023-07-28T07:10:34;96770.31;;;24.79;55.56
51123;BME280;37162;41.724;13.346;2023-07-28T07:12:59;96776.28;;;24.81;55.43
51123;BME280;37162;41.724;13.346;2023-07-28T07:15:25;96772.22;;;24.79;55.41
51123;BME280;37162;41.724;13.346;2023-07-28T07:17:50;96778.97;;;24.86;56.97
51123;BME280;37162;41.724;13.346;2023-07-28T07:20:16;96769.25;;;24.80;57.55
51123;BME280;37162;41.724;13.346;2023-07-28T07:22:41;96783.59;;;24.86;57.92
51123;BME280;37162;41.724;13.346;2023-07-28T07:25:06;96784.41;;;24.86;57.45
51123;BME280;37162;41.724;13.346;2023-07-28T07:27:33;96782.50;;;24.87;57.77
51123;BME280;37162;41.724;13.346;2023-07-28T07:29:58;96778.69;;;24.88;58.19
51123;BME280;37162;41.724;13.346;2023-07-28T07:32:24;96786.81;;;24.88;58.95
51123;BME280;37162;41.724;13.346;2023-07-28T07:34:49;96790.59;;;24.92;59.32
51123;BME280;37162;41.724;13.346;2023-07-28T07:37:14;96789.28;;;24.89;59.50
51123;BME280;37162;41.724;13.346;2023-07-28T07:39:40;96780.88;;;24.86;58.77
51123;BME280;37162;41.724;13.346;2023-07-28T07:42:09;96778.94;;;24.91;59.35
51123;BME280;37162;41.724;13.346;2023-07-28T07:44:34;96779.44;;;24.93;59.60
51123;BME280;37162;41.724;13.346;2023-07-28T07:47:00;96774.28;;;24.92;59.96
51123;BME280;37162;41.724;13.346;2023-07-28T07:49:26;96782.69;;;24.95;59.72
51123;BME280;37162;41.724;13.346;2023-07-28T07:51:52;96782.16;;;24.98;60.72
51123;BME280;37162;41.724;13.346;2023-07-28T07:54:17;96779.44;;;24.98;60.42
51123;BME280;37162;41.724;13.346;2023-07-28T07:56:44;96786.19;;;25.01;61.03
51123;BME280;37162;41.724;13.346;2023-07-28T07:59:10;96774.53;;;24.95;60.98
51123;BME280;37162;41.724;13.346;2023-07-28T08:01:35;96779.66;;;25.02;61.25
51123;BME280;37162;41.724;13.346;2023-07-28T08:04:01;96775.03;;;25.03;61.32
51123;BME280;37162;41.724;13.346;2023-07-28T08:06:26;96784.00;;;25.03;60.41
51123;BME280;37162;41.724;13.346;2023-07-28T08:08:52;96786.44;;;25.05;61.51
51123;BME280;37162;41.724;13.346;2023-07-28T08:11:19;96785.34;;;25.06;61.79
51123;BME280;37162;41.724;13.346;2023-07-28T08:13:44;96785.88;;;25.03;61.95
51123;BME280;37162;41.724;13.346;2023-07-28T08:16:10;96785.09;;;25.02;61.73
51123;BME280;37162;41.724;13.346;2023-07-28T08:18:36;96791.31;;;25.08;61.94
51123;BME280;37162;41.724;13.346;2023-07-28T08:21:01;96772.59;;;25.01;62.03
51123;BME280;37162;41.724;13.346;2023-07-28T08:23:27;96778.28;;;25.05;62.21
51123;BME280;37162;41.724;13.346;2023-07-28T08:25:53;96773.13;;;25.08;61.90
51123;BME280;37162;41.724;13.346;2023-07-28T08:28:18;96770.63;;;25.12;62.10
51123;BME280;37162;41.724;13.346;2023-07-28T08:30:43;96785.88;;;25.13;62.26
51123;BME280;37162;41.724;13.346;2023-07-28T08:33:09;96787.19;;;25.15;62.14
51123;BME280;37162;41.724;13.346;2023-07-28T08:35:34;96784.16;;;25.17;62.35
51123;BME280;37162;41.724;13.346;2023-07-28T08:38:00;96784.16;;;25.17;62.80
51123;BME280;37162;41.724;13.346;2023-07-28T08:40:26;96779.03;;;25.15;62.44
51123;BME280;37162;41.724;13.346;2023-07-28T08:42:53;96776.31;;;25.15;62.78
51123;BME280;37162;41.724;13.346;2023-07-28T08:45:19;96782.50;;;25.21;62.72
51123;BME280;37162;41.724;13.346;2023-07-28T08:47:44;96771.63;;;25.21;62.74
51123;BME280;37162;41.724;13.346;2023-07-28T08:50:10;96771.06;;;25.24;62.73
51123;BME280;37162;41.724;13.346;2023-07-28T08:52:36;96766.13;;;25.26;62.59
51123;BME280;37162;41.724;13.346;2023-07-28T08:55:01;96774.03;;;25.28;62.56
51123;BME280;37162;41.724;13.346;2023-07-28T08:57:27;96763.97;;;25.28;62.34
51123;BME280;37162;41.724;13.346;2023-07-28T08:59:54;96759.84;;;25.31;62.42
51123;BME280;37162;41.724;13.346;2023-07-28T09:02:19;96765.81;;;25.33;62.38
51123;BME280;37162;41.724;13.346;2023-07-28T09:04:47;96760.91;;;25.35;62.58
51123;BME280;37162;41.724;13.346;2023-07-28T09:07:13;96744.63;;;25.30;62.34
51123;BME280;37162;41.724;13.346;2023-07-28T09:09:39;96747.03;;;25.36;62.64
51123;BME280;37162;41.724;13.346;2023-07-28T09:12:08;96736.97;;;25.37;62.43
51123;BME280;37162;41.724;13.346;2023-07-28T09:14:37;96751.88;;;25.39;62.21
51123;BME280;37162;41.724;13.346;2023-07-28T09:17:10;96758.94;;;25.40;61.65
51123;BME280;37162;41.724;13.346;2023-07-28T09:19:56;96750.19;;;25.43;62.29
51123;BME280;37162;41.724;13.346;2023-07-28T09:22:22;96748.84;;;25.46;62.12
51123;BME280;37162;41.724;13.346;2023-07-28T09:24:48;96749.63;;;25.46;62.10
51123;BME280;37162;41.724;13.346;2023-07-28T09:27:25;96752.88;;;25.48;62.19
51123;BME280;37162;41.724;13.346;2023-07-28T09:29:53;96749.84;;;25.50;62.07
51123;BME280;37162;41.724;13.346;2023-07-28T09:32:30;96750.38;;;25.52;62.10
51123;BME280;37162;41.724;13.346;2023-07-28T09:35:12;96744.72;;;25.48;62.24
51123;BME280;37162;41.724;13.346;2023-07-28T09:37:40;96759.06;;;25.54;62.15
51123;BME280;37162;41.724;13.346;2023-07-28T09:40:11;96751.72;;;25.55;61.48
51123;BME280;37162;41.724;13.346;2023-07-28T09:42:41;96739.50;;;25.52;62.10
51123;BME280;37162;41.724;13.346;2023-07-28T09:45:07;96745.69;;;25.58;62.19
51123;BME280;37162;41.724;13.346;2023-07-28T09:47:37;96743.78;;;25.58;61.99
51123;BME280;37162;41.724;13.346;2023-07-28T09:50:05;96748.97;;;25.60;61.88
51123;BME280;37162;41.724;13.346;2023-07-28T09:52:34;96741.59;;;25.60;61.58
51123;BME280;37162;41.724;13.346;2023-07-28T09:55:06;96741.38;;;25.57;61.87
51123;BME280;37162;41.724;13.346;2023-07-28T09:57:36;96735.63;;;25.58;62.06
51123;BME280;37162;41.724;13.346;2023-07-28T10:00:04;96741.00;;;25.63;61.89
51123;BME280;37162;41.724;13.346;2023-07-28T10:02:30;96735.28;;;25.65;61.65
51123;BME280;37162;41.724;13.346;2023-07-28T10:04:57;96733.38;;;25.65;61.93
51123;BME280;37162;41.724;13.346;2023-07-28T10:07:24;96739.31;;;25.67;61.70
51123;BME280;37162;41.724;13.346;2023-07-28T10:09:50;96727.63;;;25.67;61.52
51123;BME280;37162;41.724;13.346;2023-07-28T10:12:24;96738.53;;;25.67;61.54
51123;BME280;37162;41.724;13.346;2023-07-28T10:15:00;96741.81;;;25.64;61.50
51123;BME280;37162;41.724;13.346;2023-07-28T10:17:33;96749.66;;;25.70;61.46
51123;BME280;37162;41.724;13.346;2023-07-28T10:20:05;96746.38;;;25.68;61.32
51123;BME280;37162;41.724;13.346;2023-07-28T10:22:46;96756.13;;;25.74;61.47
51123;BME280;37162;41.724;13.346;2023-07-28T10:25:12;96751.25;;;25.71;61.38
51123;BME280;37162;41.724;13.346;2023-07-28T10:27:38;96756.13;;;25.74;61.24
51123;BME280;37162;41.724;13.346;2023-07-28T10:30:11;96766.75;;;25.76;61.14
51123;BME280;37162;41.724;13.346;2023-07-28T10:32:41;96749.31;;;25.77;61.16
51123;BME280;37162;41.724;13.346;2023-07-28T10:37:38;96736.25;;;25.79;60.96
51123;BME280;37162;41.724;13.346;2023-07-28T10:40:30;96726.44;;;25.78;58.94
51123;BME280;37162;41.724;13.346;2023-07-28T10:42:57;96738.84;;;25.89;60.70
51123;BME280;37162;41.724;13.346;2023-07-28T10:45:25;96740.69;;;25.94;60.75
51123;BME280;37162;41.724;13.346;2023-07-28T10:47:51;96743.41;;;25.94;60.45
51123;BME280;37162;41.724;13.346;2023-07-28T10:50:18;96740.16;;;25.92;60.56
51123;BME280;37162;41.724;13.346;2023-07-28T10:52:45;96736.13;;;25.89;60.71
51123;BME280;37162;41.724;13.346;2023-07-28T10:57:44;96726.41;;;25.83;60.75
51123;BME280;37162;41.724;13.346;2023-07-28T11:00:11;96736.75;;;25.81;60.94
51123;BME280;37162;41.724;13.346;2023-07-28T11:02:44;96730.81;;;25.79;60.64
51123;BME280;37162;41.724;13.346;2023-07-28T11:07:47;96730.56;;;25.76;60.70
51123;BME280;37162;41.724;13.346;2023-07-28T11:10:13;96730.84;;;25.74;61.16
51123;BME280;37162;41.724;13.346;2023-07-28T11:12:41;96734.94;;;25.71;61.12
51123;BME280;37162;41.724;13.346;2023-07-28T11:15:12;96742.25;;;25.76;61.26
51123;BME280;37162;41.724;13.346;2023-07-28T11:17:43;96732.44;;;25.75;60.91
51123;BME280;37162;41.724;13.346;2023-07-28T11:20:20;96742.25;;;25.76;61.27
51123;BME280;37162;41.724;13.346;2023-07-28T11:22:51;96742.25;;;25.76;61.20
51123;BME280;37162;41.724;13.346;2023-07-28T11:25:17;96740.63;;;25.75;60.63
51123;BME280;37162;41.724;13.346;2023-07-28T11:27:43;96746.06;;;25.75;61.11
51123;BME280;37162;41.724;13.346;2023-07-28T11:30:12;96725.66;;;25.72;61.23
51123;BME280;37162;41.724;13.346;2023-07-28T11:32:38;96724.03;;;25.71;60.96
51123;BME280;37162;41.724;13.346;2023-07-28T11:35:08;96731.38;;;25.76;61.16
51123;BME280;37162;41.724;13.346;2023-07-28T11:37:35;96736.53;;;25.72;61.33
51123;BME280;37162;41.724;13.346;2023-07-28T11:40:05;96734.13;;;25.71;61.27
51123;BME280;37162;41.724;13.346;2023-07-28T11:42:37;96730.56;;;25.76;61.21
51123;BME280;37162;41.724;13.346;2023-07-28T11:45:04;96721.28;;;25.77;61.17
51123;BME280;37162;41.724;13.346;2023-07-28T11:47:31;96701.47;;;25.71;60.96
51123;BME280;37162;41.724;13.346;2023-07-28T11:49:57;96725.06;;;25.81;61.01
51123;BME280;37162;41.724;13.346;2023-07-28T11:52:36;96714.66;;;25.83;61.10
51123;BME280;37162;41.724;13.346;2023-07-28T11:55:05;96709.03;;;25.79;61.01
51123;BME280;37162;41.724;13.346;2023-07-28T11:57:32;96701.94;;;25.78;61.19
51123;BME280;37162;41.724;13.346;2023-07-28T11:59:58;96716.53;;;25.87;61.25
51123;BME280;37162;41.724;13.346;2023-07-28T12:02:29;96713.00;;;25.87;61.04
51123;BME280;37162;41.724;13.346;2023-07-28T12:04:55;96712.72;;;25.88;61.03
51123;BME280;37162;41.724;13.346;2023-07-28T12:07:30;96701.03;;;25.88;61.06
51123;BME280;37162;41.724;13.346;2023-07-28T12:09:56;96695.59;;;25.88;61.17
51123;BME280;37162;41.724;13.346;2023-07-28T12:12:27;96689.31;;;25.87;61.12
51123;BME280;37162;41.724;13.346;2023-07-28T12:14:55;96675.50;;;25.84;60.95
51123;BME280;37162;41.724;13.346;2023-07-28T12:17:23;96688.78;;;25.85;60.97
51123;BME280;37162;41.724;13.346;2023-07-28T12:20:06;96693.38;;;25.90;60.96
51123;BME280;37162;41.724;13.346;2023-07-28T12:22:37;96676.72;;;25.91;60.47
51123;BME280;37162;41.724;13.346;2023-07-28T12:25:03;96674.53;;;25.93;60.54
51123;BME280;37162;41.724;13.346;2023-07-28T12:27:30;96673.44;;;25.94;60.75
51123;BME280;37162;41.724;13.346;2023-07-28T12:29:55;96673.72;;;25.93;60.75
51123;BME280;37162;41.724;13.346;2023-07-28T12:32:21;96668.28;;;25.93;60.57
51123;BME280;37162;41.724;13.346;2023-07-28T12:34:50;96660.41;;;25.91;60.86
51123;BME280;37162;41.724;13.346;2023-07-28T12:37:17;96659.66;;;25.86;60.72
51123;BME280;37162;41.724;13.346;2023-07-28T12:39:42;96676.22;;;25.89;60.75
51123;BME280;37162;41.724;13.346;2023-07-28T12:42:09;96665.63;;;25.88;60.97
51123;BME280;37162;41.724;13.346;2023-07-28T12:44:36;96668.69;;;25.81;60.96
51123;BME280;37162;41.724;13.346;2023-07-28T12:47:02;96677.59;;;25.87;60.75
51123;BME280;37162;41.724;13.346;2023-07-28T12:49:28;96676.81;;;25.86;60.86
51123;BME280;37162;41.724;13.346;2023-07-28T12:51:55;96665.69;;;25.83;61.06
51123;BME280;37162;41.724;13.346;2023-07-28T12:54:22;96662.97;;;25.83;60.13
51123;BME280;37162;41.724;13.346;2023-07-28T12:56:47;96671.88;;;25.88;60.65
51123;BME280;37162;41.724;13.346;2023-07-28T12:59:14;96664.53;;;25.89;60.77
51123;BME280;37162;41.724;13.346;2023-07-28T13:01:39;96660.47;;;25.86;60.83
51123;BME280;37162;41.724;13.346;2023-07-28T13:04:05;96661.56;;;25.85;60.64
51123;BME280;37162;41.724;13.346;2023-07-28T13:06:30;96663.50;;;25.85;60.98